Time;durP1;ratioP1;P1;durP2;ratioP2;P2;SDS_P1;SDS_P2;PMS_P1;PMS_P2;Temp;Humidity;BMP_temperature;BMP_pressure;BME280_temperature;BME280_humidity;BME280_pressure;Samples;Min_cycle;Max_cycle;Signal;HPM_P1;HPM_P2
2022/11/24 00:00:16;;;;;;;9.15;3.35;;;;;;;-7.47;65.31;96901.13;6197565;28;20480;-66
2022/11/24 00:03:20;;;;;;;9.23;3.72;;;;;;;-7.52;65.66;96887.47;6197749;28;20276;-67
2022/11/24 00:06:26;;;;;;;10.90;3.97;;;;;;;-7.47;65.86;96901.13;6198370;28;20039;-68
2022/11/24 00:09:30;;;;;;;9.63;4.05;;;;;;;-7.46;65.18;96897.72;6198060;28;20050;-67
2022/11/24 00:12:34;;;;;;;9.05;4.68;;;;;;;-7.43;65.22;96896.91;6198379;28;20129;-67
2022/11/24 00:15:40;;;;;;;8.70;5.05;;;;;;;-7.39;65.46;96889.22;6198048;28;20062;-67
2022/11/24 00:18:46;;;;;;;9.85;5.38;;;;;;;-7.39;65.82;96879.00;6213190;28;20042;-67
2022/11/24 00:21:51;;;;;;;12.27;6.32;;;;;;;-7.37;65.76;96877.31;6198199;28;20056;-68
2022/11/24 00:24:57;;;;;;;10.60;5.40;;;;;;;-7.37;66.09;96872.22;6198104;28;20038;-66
2022/11/24 00:28:01;;;;;;;11.55;6.35;;;;;;;-7.40;65.54;96872.19;6197498;28;20421;-67
2022/11/24 00:31:16;;;;;;;18.90;7.20;;;;;;;-7.33;66.22;96879.06;6197997;28;20072;-67
2022/11/24 00:34:20;;;;;;;27.77;8.40;;;;;;;-7.35;65.63;96870.53;6197242;28;20050;-67
2022/11/24 00:37:24;;;;;;;27.42;9.57;;;;;;;-7.39;65.43;96862.81;6197760;28;20042;-67
2022/11/24 00:40:28;;;;;;;;;;;;;;;-7.43;65.45;96872.19;6198102;28;20085;-66
2022/11/24 00:43:32;;;;;;;23.92;8.65;;;;;;;-7.52;65.28;96851.69;6196983;28;19928;-67
2022/11/24 00:46:36;;;;;;;23.98;10.68;;;;;;;-7.60;65.53;96850.78;6196688;28;20050;-68
2022/11/24 00:49:39;;;;;;;29.05;11.52;;;;;;;-7.71;65.40;96833.69;6197770;28;20488;-67
2022/11/24 00:52:43;;;;;;;29.80;10.90;;;;;;;-7.69;65.65;96833.72;6197790;28;20042;-67
2022/11/24 00:55:50;;;;;;;33.97;13.20;;;;;;;-7.72;65.53;96834.56;6180495;28;20046;-67
2022/11/24 00:58:54;;;;;;;37.45;11.45;;;;;;;-7.68;65.56;96820.09;6197460;28;20497;-67
2022/11/24 01:01:56;;;;;;;29.10;11.65;;;;;;;-7.71;64.99;96826.03;6195616;28;20094;-67
2022/11/24 01:04:57;;;;;;;27.67;10.52;;;;;;;-7.78;65.82;96819.19;6179324;28;20054;-67
2022/11/24 01:08:00;;;;;;;30.80;11.77;;;;;;;-8.11;65.30;96767.91;6196852;28;20050;-67
2022/11/24 01:11:14;;;;;;;27.77;10.40;;;;;;;-7.72;65.08;96813.25;6196739;28;20058;-67
2022/11/24 01:14:18;;;;;;;18.85;8.60;;;;;;;-7.74;65.19;96785.13;6196462;28;20057;-67
2022/11/24 01:17:19;;;;;;;;;;;;;;;-7.73;65.86;96786.88;6197353;28;20054;-67
2022/11/24 01:20:21;;;;;;;17.17;7.50;;;;;;;-7.76;65.42;96781.72;6196334;28;19926;-67
2022/11/24 01:23:25;;;;;;;17.17;8.23;;;;;;;-7.72;65.32;96767.28;6196075;28;20053;-67
2022/11/24 01:26:30;;;;;;;26.88;10.05;;;;;;;-7.76;64.94;96756.16;6197143;28;20050;-67
2022/11/24 01:29:34;;;;;;;25.63;11.20;;;;;;;-7.74;65.08;96757.03;6196419;28;20433;-68
2022/11/24 01:32:36;;;;;;;21.40;9.50;;;;;;;-7.80;65.31;96749.34;6197240;28;20046;-67
2022/11/24 01:35:37;;;;;;;23.67;11.18;;;;;;;-7.81;65.20;96751.88;6196030;28;20513;-67
2022/11/24 01:38:43;;;;;;;23.67;10.40;;;;;;;-7.83;65.73;96749.34;6196890;28;20046;-66
2022/11/24 01:41:45;;;;;;;28.13;11.93;;;;;;;-7.83;65.37;96744.22;6196814;28;20053;-67
2022/11/24 01:44:48;;;;;;;40.13;16.15;;;;;;;-7.77;65.15;96739.16;6196207;28;20050;-67
2022/11/24 01:47:52;;;;;;;35.20;15.70;;;;;;;-7.74;65.61;96749.38;6196143;28;20097;-67
2022/11/24 01:51:12;;;;;;;44.85;17.88;;;;;;;-7.75;65.86;96732.34;6196706;28;20562;-67
2022/11/24 01:54:21;;;;;;;54.75;20.25;;;;;;;-7.72;65.98;96726.41;6196565;28;20050;-67
2022/11/24 01:57:41;;;;;;;47.00;19.33;;;;;;;-7.70;65.71;96732.34;6196568;28;20102;-67
2022/11/24 02:00:44;;;;;;;45.60;19.00;;;;;;;-7.68;66.00;96723.84;6196702;28;20494;-67
2022/11/24 02:03:49;;;;;;;53.30;19.00;;;;;;;-7.64;65.48;96718.75;6196425;28;20502;-67
2022/11/24 02:07:01;;;;;;;52.80;18.92;;;;;;;-7.57;65.85;96720.50;6196438;28;20046;-67
2022/11/24 02:10:10;;;;;;;46.67;20.02;;;;;;;-7.60;65.63;96710.28;6196467;28;20042;-68
2022/11/24 02:13:17;;;;;;;46.10;19.33;;;;;;;-7.60;65.70;96715.38;6197867;28;20042;-67
2022/11/24 02:16:23;;;;;;;54.42;21.45;;;;;;;-7.59;65.74;96711.97;6200762;28;20054;-67
2022/11/24 02:19:38;;;;;;;50.35;20.10;;;;;;;-7.56;65.76;96701.75;6200859;28;20137;-67
2022/11/24 02:22:43;;;;;;;46.57;19.40;;;;;;;-7.55;65.55;96694.09;6200640;28;20181;-66
2022/11/24 02:25:47;;;;;;;60.95;21.98;;;;;;;-7.54;66.13;96700.06;6200881;28;20895;-67
2022/11/24 02:28:48;;;;;;;;;;;;;;;-7.54;65.47;96694.94;6200140;28;20417;-67
2022/11/24 02:32:01;;;;;;;47.22;20.20;;;;;;;-7.60;65.83;96687.28;6199718;28;19917;-67
2022/11/24 02:35:07;;;;;;;50.17;19.48;;;;;;;-7.61;65.96;96683.00;6199817;28;20153;-66
2022/11/24 02:38:14;;;;;;;34.03;15.13;;;;;;;-7.57;65.47;96682.16;6199753;28;20452;-67
2022/11/24 02:41:22;;;;;;;53.95;22.55;;;;;;;-7.61;65.81;96677.88;6200456;28;20046;-67
2022/11/24 02:44:31;;;;;;;60.95;23.75;;;;;;;-7.63;65.70;96674.50;6199664;28;20050;-67
2022/11/24 02:47:34;;;;;;;53.40;22.20;;;;;;;-7.63;66.27;96679.59;6199664;28;20053;-67
2022/11/24 02:50:36;;;;;;;54.85;24.40;;;;;;;-7.61;66.63;96673.66;6200110;28;20042;-67
2022/11/24 02:53:37;;;;;;;55.97;24.50;;;;;;;-7.56;66.61;96671.94;6199965;28;20049;-67
2022/11/24 02:56:41;;;;;;;58.97;23.83;;;;;;;-7.49;66.22;96670.28;6200040;28;20556;-68
2022/11/24 02:59:48;;;;;;;61.30;25.05;;;;;;;-7.47;66.55;96656.66;6200047;28;20045;-68
2022/11/24 03:02:49;;;;;;;52.80;23.90;;;;;;;-7.41;66.12;96660.91;6199357;28;20073;-67
2022/11/24 03:05:56;;;;;;;56.60;22.02;;;;;;;-7.37;66.45;96657.50;6199401;28;20132;-67
2022/11/24 03:09:00;;;;;;;56.72;21.60;;;;;;;-7.30;66.44;96659.25;6199584;28;20502;-67
2022/11/24 03:12:03;;;;;;;50.83;22.25;;;;;;;-7.23;66.03;96653.25;6199307;28;20042;-67
2022/11/24 03:15:08;;;;;;;51.20;20.33;;;;;;;-7.21;66.39;96652.44;6198988;28;20046;-68
2022/11/24 03:18:09;;;;;;;53.58;21.45;;;;;;;-7.24;66.17;96643.91;6198857;28;20505;-67
2022/11/24 03:21:13;;;;;;;51.25;20.20;;;;;;;-7.20;66.11;96643.91;6199461;28;20046;-66
2022/11/24 03:24:22;;;;;;;34.72;16.48;;;;;;;-7.18;65.91;96647.31;6198358;28;20046;-67
2022/11/24 03:27:29;;;;;;;41.78;16.35;;;;;;;-7.25;66.17;96644.72;6199240;28;20046;-67
2022/11/24 03:30:39;;;;;;;38.33;15.73;;;;;;;-7.32;65.79;96627.69;6199347;28;20050;-66
2022/11/24 03:33:41;;;;;;;36.38;15.60;;;;;;;-7.30;66.23;96627.72;6197944;28;20424;-67
2022/11/24 03:36:42;;;;;;;23.70;11.68;;;;;;;-7.33;65.75;96632.78;6180930;28;20433;-67
2022/11/24 03:39:44;;;;;;;25.58;12.10;;;;;;;-7.37;66.09;96619.16;6198322;28;20065;-66
2022/11/24 03:42:47;;;;;;;20.63;9.93;;;;;;;-7.35;66.26;96614.91;6198761;28;20042;-67
2022/11/24 03:45:51;;;;;;;18.25;8.30;;;;;;;-7.36;66.32;96607.22;6198635;28;20421;-67
2022/11/24 03:48:55;;;;;;;17.73;8.10;;;;;;;-7.40;66.33;96603.81;6198550;28;20545;-66
2022/11/24 03:52:01;;;;;;;13.95;8.05;;;;;;;-7.41;66.13;96612.34;6198177;28;20042;-67
2022/11/24 03:55:06;;;;;;;16.83;7.13;;;;;;;-7.46;65.82;96596.16;6198059;28;20046;-67
2022/11/24 03:58:12;;;;;;;18.98;7.93;;;;;;;-7.37;66.32;96603.81;6197946;28;20046;-68
2022/11/24 04:01:13;;;;;;;;;;;;;;;-7.43;65.41;96603.81;6197826;28;20050;-67
2022/11/24 04:04:17;;;;;;;18.65;9.32;;;;;;;-7.46;65.87;96596.16;6197550;28;19944;-67
2022/11/24 04:07:22;;;;;;;21.23;9.38;;;;;;;-7.47;65.89;96599.59;6197137;28;20046;-68
2022/11/24 04:10:25;;;;;;;22.40;9.82;;;;;;;-7.44;66.14;96597.03;6197549;28;20509;-67
2022/11/24 04:13:32;;;;;;;23.77;10.60;;;;;;;-7.40;66.16;96590.19;6197899;28;20046;-67
2022/11/24 04:16:39;;;;;;;23.83;9.55;;;;;;;-7.41;65.80;96594.47;6197648;28;20058;-67
2022/11/24 04:19:42;;;;;;;26.10;12.90;;;;;;;-7.42;66.18;96582.53;6197690;28;20050;-66
2022/11/24 04:22:48;;;;;;;26.45;10.07;;;;;;;-7.36;66.39;96586.78;6197617;28;20042;-66
2022/11/24 04:25:52;;;;;;;25.20;12.13;;;;;;;-7.33;66.29;96587.66;6196856;28;20054;-67
2022/11/24 04:28:56;;;;;;;31.50;13.00;;;;;;;-7.26;65.66;96585.94;6197724;28;20039;-67
2022/11/24 04:32:03;;;;;;;35.50;12.30;;;;;;;-7.26;65.96;96584.25;6197582;28;20057;-67
2022/11/24 04:35:07;;;;;;;32.92;13.10;;;;;;;-7.24;65.89;96577.44;6197598;28;20141;-67
2022/11/24 04:38:08;;;;;;;31.17;13.25;;;;;;;-7.16;65.72;96574.00;6196360;28;20057;-67
2022/11/24 04:41:13;;;;;;;35.15;14.52;;;;;;;-7.16;65.48;96553.53;6196486;28;20038;-67
2022/11/24 04:44:21;;;;;;;35.17;12.05;;;;;;;-7.12;65.53;96550.16;6196135;28;20448;-67
2022/11/24 04:47:25;;;;;;;27.60;10.88;;;;;;;-7.02;65.62;96559.50;6197426;28;20042;-67
2022/11/24 04:50:29;;;;;;;41.08;15.35;;;;;;;-7.07;65.08;96564.63;6197388;28;20494;-67
2022/11/24 04:53:33;;;;;;;40.17;15.35;;;;;;;-7.11;65.50;96551.84;6197375;28;20054;-67
2022/11/24 04:56:37;;;;;;;34.95;15.75;;;;;;;-6.94;65.24;96555.22;6196326;28;20054;-67
2022/11/24 04:59:41;;;;;;;28.58;12.75;;;;;;;-6.86;65.12;96548.41;6197317;28;20050;-67
2022/11/24 05:02:45;;;;;;;29.83;12.35;;;;;;;-6.90;65.54;96559.50;6196553;28;20046;-67
2022/11/24 05:05:49;;;;;;;24.75;10.25;;;;;;;-6.93;65.45;96551.84;6197190;28;20049;-67
2022/11/24 05:08:56;;;;;;;25.80;12.10;;;;;;;-6.98;65.34;96550.13;6197111;28;20145;-67
2022/11/24 05:11:58;;;;;;;19.17;8.57;;;;;;;-7.00;65.62;96550.97;6196749;28;20137;-68
2022/11/24 05:15:01;;;;;;;22.73;9.48;;;;;;;-7.01;65.09;96554.41;6196649;28;20065;-67
2022/11/24 05:18:12;;;;;;;15.50;8.65;;;;;;;-7.06;65.95;96551.00;6149087;28;20522;-67
2022/11/24 05:21:19;;;;;;;16.95;8.18;;;;;;;-7.00;65.81;96547.56;6148913;28;20043;-67
2022/11/24 05:24:24;;;;;;;21.58;8.73;;;;;;;-6.95;65.53;96542.47;6148972;29;20099;-66
2022/11/24 05:27:33;;;;;;;16.95;7.65;;;;;;;-6.88;65.37;96539.03;6149090;28;20130;-67
2022/11/24 05:30:39;;;;;;;17.52;7.68;;;;;;;-6.87;65.23;96551.81;6147342;29;20062;-68
2022/11/24 05:33:42;;;;;;;28.45;12.43;;;;;;;-6.85;65.18;96550.13;6148985;29;20043;-68
2022/11/24 05:36:53;;;;;;;17.63;8.15;;;;;;;-6.79;64.84;96529.63;6148784;28;20051;-67
2022/11/24 05:39:56;;;;;;;16.15;8.93;;;;;;;-6.73;65.21;96531.31;6148945;28;20050;-66
2022/11/24 05:43:03;;;;;;;20.67;9.95;;;;;;;-6.71;64.81;96547.50;6148476;28;20055;-67
2022/11/24 05:46:04;;;;;;;25.23;10.50;;;;;;;-6.67;65.08;96527.91;6148450;28;20058;-67
2022/11/24 05:49:06;;;;;;;20.80;10.70;;;;;;;-6.52;64.56;96532.94;6151386;28;20418;-67
2022/11/24 05:52:12;;;;;;;20.45;8.82;;;;;;;-6.50;64.76;96538.94;6153137;28;20043;-67
2022/11/24 05:55:18;;;;;;;13.88;8.15;;;;;;;-6.48;64.48;96532.09;6152804;28;20047;-67
2022/11/24 05:58:19;;;;;;;21.00;8.93;;;;;;;-6.47;64.54;96536.34;6152268;28;20051;-67
2022/11/24 06:01:22;;;;;;;20.88;9.00;;;;;;;-6.59;64.62;96531.28;6153234;29;20042;-67
2022/11/24 06:04:28;;;;;;;17.02;9.05;;;;;;;-6.56;65.01;96536.41;6152274;28;20077;-67
2022/11/24 06:07:32;;;;;;;18.70;9.18;;;;;;;-6.79;64.49;96478.47;6152984;29;20043;-67
2022/11/24 06:10:33;;;;;;;18.60;9.00;;;;;;;-6.48;64.44;96537.22;6152891;29;20039;-67
2022/11/24 06:13:34;;;;;;;15.02;7.60;;;;;;;-6.43;64.63;96532.06;6153018;29;20058;-67
2022/11/24 06:16:38;;;;;;;15.20;7.07;;;;;;;-6.36;64.51;96526.06;6177585;28;20070;-67
2022/11/24 06:19:39;;;;;;;13.80;6.72;;;;;;;-6.33;64.08;96516.66;6201045;28;20125;-67
2022/11/24 06:22:45;;;;;;;12.23;6.22;;;;;;;-6.26;64.05;96506.41;6200106;28;20109;-68
2022/11/24 06:25:49;;;;;;;12.13;5.85;;;;;;;-6.30;64.24;96494.47;6200464;28;20517;-68
2022/11/24 06:28:50;;;;;;;;;;;;;;;-6.30;63.89;96497.03;6200301;28;20062;-67
2022/11/24 06:31:51;;;;;;;5.85;3.97;;;;;;;-6.34;63.97;96497.06;6200141;28;20293;-67
2022/11/24 06:34:57;;;;;;;10.80;5.13;;;;;;;-6.42;64.58;96498.78;6199763;28;20046;-67
2022/11/24 06:38:03;;;;;;;9.20;4.47;;;;;;;-6.34;63.84;96516.66;6200615;28;20137;-67
2022/11/24 06:41:15;;;;;;;13.85;5.68;;;;;;;-6.28;63.82;96511.53;6199468;28;20042;-67
2022/11/24 06:44:19;;;;;;;12.55;5.65;;;;;;;-6.20;64.10;96509.78;6200340;28;20038;-67
2022/11/24 06:47:26;;;;;;;8.38;4.15;;;;;;;-6.22;63.70;96515.78;6199263;28;20065;-67
2022/11/24 06:50:27;;;;;;;7.93;4.18;;;;;;;-6.16;63.59;96520.88;6199301;28;20450;-66
2022/11/24 06:53:30;;;;;;;12.75;5.15;;;;;;;-6.21;63.87;96513.19;6199026;28;20042;-67
2022/11/24 06:56:35;;;;;;;11.57;4.78;;;;;;;-6.16;63.86;96523.41;6199011;28;20085;-67
2022/11/24 06:59:39;;;;;;;6.78;3.58;;;;;;;-6.08;63.41;96524.25;6198270;28;20425;-67
2022/11/24 07:02:44;;;;;;;9.85;4.53;;;;;;;-6.10;63.42;96505.47;6199550;28;20133;-67
2022/11/24 07:05:46;;;;;;;9.93;4.53;;;;;;;-6.12;63.58;96515.69;6198960;28;20065;-67
2022/11/24 07:08:50;;;;;;;8.73;4.45;;;;;;;-6.18;64.14;96513.19;6198876;28;20140;-67
2022/11/24 07:11:54;;;;;;;10.20;4.55;;;;;;;-6.32;64.11;96508.13;6199059;28;20058;-66
2022/11/24 07:14:57;;;;;;;8.98;4.03;;;;;;;-6.22;63.62;96511.50;6198919;28;20058;-67
2022/11/24 07:18:05;;;;;;;10.07;4.45;;;;;;;-6.31;63.57;96491.06;6199815;28;20054;-67
2022/11/24 07:21:14;;;;;;;10.07;3.88;;;;;;;-6.33;63.78;96493.63;6199264;28;20057;-67
2022/11/24 07:24:18;;;;;;;10.18;4.20;;;;;;;-6.40;64.17;96486.81;6198785;28;20043;-67
2022/11/24 07:27:23;;;;;;;10.55;4.30;;;;;;;-6.49;63.97;96465.53;6198225;28;20540;-68
2022/11/24 07:30:28;;;;;;;12.93;4.90;;;;;;;-6.41;64.46;96458.69;6198177;28;20535;-68
2022/11/24 07:33:31;;;;;;;5.10;2.58;;;;;;;-6.32;63.79;96464.59;6198014;28;20068;-67
2022/11/24 07:36:33;;;;;;;6.70;3.67;;;;;;;-6.39;63.70;96462.94;6197496;28;20061;-67
2022/11/24 07:39:34;;;;;;;9.27;4.07;;;;;;;-6.37;63.42;96466.34;6181184;28;20137;-67
2022/11/24 07:42:35;;;;;;;12.45;4.25;;;;;;;-6.40;64.03;96466.34;6197901;28;20053;-68
2022/11/24 07:45:39;;;;;;;11.60;4.03;;;;;;;-6.44;63.75;96469.78;6198676;28;20062;-67
2022/11/24 07:48:47;;;;;;;9.10;3.65;;;;;;;-6.39;64.71;96464.66;6198195;28;20034;-68
2022/11/24 07:51:49;;;;;;;11.25;4.50;;;;;;;-6.37;63.73;96461.22;6197046;28;20125;-68
2022/11/24 07:54:53;;;;;;;10.13;4.55;;;;;;;-6.38;63.32;96433.91;6197113;28;20046;-67
2022/11/24 07:58:00;;;;;;;9.88;4.18;;;;;;;-6.49;63.97;96430.56;6196906;28;20057;-68
2022/11/24 08:01:15;;;;;;;10.18;5.05;;;;;;;-6.52;63.32;96414.38;6197717;28;20054;-68
2022/11/24 08:04:22;;;;;;;10.43;5.28;;;;;;;-6.59;63.77;96408.44;6198325;28;20417;-67
2022/11/24 08:07:25;;;;;;;10.38;4.95;;;;;;;-6.69;63.81;96417.03;6198081;28;20050;-67
2022/11/24 08:10:27;;;;;;;9.32;5.10;;;;;;;-6.72;64.82;96417.03;6197493;28;20049;-67
2022/11/24 08:13:28;;;;;;;9.20;4.35;;;;;;;-6.93;64.60;96411.16;6197449;28;20434;-67
2022/11/24 08:16:32;;;;;;;7.82;4.40;;;;;;;-6.94;65.73;96406.03;6197321;28;20058;-67
2022/11/24 08:19:35;;;;;;;7.03;4.25;;;;;;;-6.96;65.18;96403.50;6197673;28;20046;-67
2022/11/24 08:22:39;;;;;;;10.20;5.05;;;;;;;-7.05;66.09;96395.84;6179851;28;20046;-67
2022/11/24 08:25:42;;;;;;;15.27;6.38;;;;;;;-7.11;66.15;96383.09;6197239;28;20053;-67
2022/11/24 08:28:46;;;;;;;12.60;6.63;;;;;;;-7.13;66.27;96374.56;6196340;28;20433;-68
2022/11/24 08:31:56;;;;;;;8.32;4.93;;;;;;;-7.21;67.02;96381.44;6197572;28;20057;-68
2022/11/24 08:35:00;;;;;;;;;;;;;;;-7.13;67.17;96389.91;6196982;28;20053;-66
2022/11/24 08:38:05;;;;;;;6.90;3.33;;;;;;;-7.31;67.67;96376.34;6197431;28;19956;-66
2022/11/24 08:41:14;;;;;;;6.35;3.38;;;;;;;-7.24;68.07;96372.91;6197492;28;20054;-67
2022/11/24 08:44:18;;;;;;;11.65;5.15;;;;;;;-7.30;68.14;96372.94;6197548;28;20046;-68
2022/11/24 08:47:23;;;;;;;8.70;4.43;;;;;;;-7.28;68.10;96368.66;6196625;28;20137;-67
2022/11/24 08:50:27;;;;;;;9.98;4.50;;;;;;;-7.23;67.93;96366.09;6196992;28;20057;-69
2022/11/24 08:53:31;;;;;;;15.75;7.45;;;;;;;-7.15;68.40;96360.97;6197152;28;20140;-69
2022/11/24 08:56:33;;;;;;;14.75;6.60;;;;;;;-7.26;68.83;96354.16;6196471;28;20560;-68
2022/11/24 08:59:37;;;;;;;9.25;4.63;;;;;;;-7.24;68.71;96347.34;6196184;28;20066;-67
2022/11/24 09:02:42;;;;;;;8.07;4.38;;;;;;;-7.25;69.30;96347.34;6196548;28;20051;-68
2022/11/24 09:05:47;;;;;;;9.27;4.40;;;;;;;-7.30;68.97;96341.44;6197173;28;20042;-67
2022/11/24 09:08:52;;;;;;;8.68;5.35;;;;;;;-7.16;69.03;96338.78;6196611;28;20097;-67
2022/11/24 09:11:55;;;;;;;10.65;4.35;;;;;;;-7.12;69.21;96317.47;6196660;28;20046;-68
2022/11/24 09:14:57;;;;;;;11.95;4.78;;;;;;;-7.18;69.34;96322.63;6195342;28;20046;-68
2022/11/24 09:18:01;;;;;;;15.40;6.68;;;;;;;-7.16;69.88;96326.00;6197244;28;20196;-67
2022/11/24 09:21:13;;;;;;;13.57;5.10;;;;;;;-7.20;69.73;96306.44;6197003;28;20050;-67
2022/11/24 09:24:15;;;;;;;11.57;4.68;;;;;;;-7.20;70.40;96286.84;6195279;28;20074;-67
2022/11/24 09:27:19;;;;;;;5.63;3.35;;;;;;;-7.08;70.59;96293.59;6196873;28;20409;-67
2022/11/24 09:30:25;;;;;;;10.60;4.35;;;;;;;-7.01;70.53;96302.94;6179861;28;20043;-66
2022/11/24 09:33:29;;;;;;;7.55;4.22;;;;;;;-6.91;70.74;96314.78;6196101;28;20046;-67
2022/11/24 09:36:34;;;;;;;6.28;3.88;;;;;;;-6.95;71.09;96297.78;6197089;28;20052;-67
2022/11/24 09:39:38;;;;;;;5.75;4.18;;;;;;;-6.88;71.46;96307.13;6196701;28;20038;-67
2022/11/24 09:42:41;;;;;;;5.85;3.95;;;;;;;-6.79;70.76;96308.78;6196245;28;20038;-67
2022/11/24 09:45:57;;;;;;;4.60;3.17;;;;;;;-6.75;71.73;96314.72;6196454;28;20074;-67
2022/11/24 09:49:04;;;;;;;6.72;4.30;;;;;;;-6.66;71.71;96304.41;6195727;28;20055;-66
2022/11/24 09:52:12;;;;;;;7.68;3.97;;;;;;;-6.58;72.04;96312.91;6195941;28;20050;-66
2022/11/24 09:55:26;;;;;;;6.07;4.57;;;;;;;-6.60;71.97;96320.56;6195553;28;20522;-67
2022/11/24 09:58:56;;;;;;;8.32;4.45;;;;;;;-6.48;71.89;96334.16;6196672;28;20058;-66
2022/11/24 10:02:02;;;;;;;7.45;3.97;;;;;;;-6.52;72.41;96338.44;6195970;28;20060;-67
2022/11/24 10:05:07;;;;;;;5.43;3.28;;;;;;;-6.51;72.35;96340.16;6196281;28;20070;-67
2022/11/24 10:08:22;;;;;;;8.32;4.38;;;;;;;-6.43;72.45;96350.31;6196467;28;20113;-66
2022/11/24 10:11:35;;;;;;;6.53;3.33;;;;;;;-6.24;71.90;96354.47;6195652;28;20050;-66
2022/11/24 10:14:54;;;;;;;8.20;4.38;;;;;;;-6.34;72.32;96348.56;6195667;28;20057;-66
2022/11/24 10:18:13;;;;;;;4.15;2.38;;;;;;;-6.19;72.95;96357.00;6196243;28;20506;-67
2022/11/24 10:21:32;;;;;;;7.75;3.55;;;;;;;-6.09;72.92;96353.47;6195878;28;20062;-67
2022/11/24 10:24:42;;;;;;;7.97;3.92;;;;;;;-6.07;72.32;96364.56;6195614;28;20054;-67
2022/11/24 10:27:54;;;;;;;6.85;3.70;;;;;;;-6.06;72.67;96353.44;6195122;28;20056;-66
2022/11/24 10:31:14;;;;;;;8.50;4.45;;;;;;;-5.99;72.91;96355.13;6195271;28;20046;-67
2022/11/24 10:34:45;;;;;;;8.60;4.40;;;;;;;-5.84;72.62;96338.72;6197234;28;20062;-66
2022/11/24 10:38:21;;;;;;;9.57;4.43;;;;;;;-5.73;72.71;96351.44;6197599;28;20585;-67
2022/11/24 10:42:04;;;;;;;8.93;4.38;;;;;;;-5.63;72.99;96345.38;6199482;28;20460;-66
2022/11/24 10:45:18;;;;;;;10.60;4.53;;;;;;;-5.66;72.45;96319.78;6199960;28;20043;-66
2022/11/24 10:48:26;;;;;;;7.10;4.65;;;;;;;-5.58;72.79;96317.94;6199416;28;20047;-66
2022/11/24 10:51:30;;;;;;;11.80;5.90;;;;;;;-5.44;72.59;96331.47;6200311;28;20046;-66
2022/11/24 10:54:34;;;;;;;14.20;4.93;;;;;;;-5.45;72.94;96331.50;6199617;28;20046;-66
2022/11/24 10:57:39;;;;;;;11.88;5.03;;;;;;;-5.49;73.49;96320.44;6199283;28;20051;-66
2022/11/24 11:00:45;;;;;;;9.65;5.32;;;;;;;-5.46;72.91;96307.59;6199208;28;20054;-68
2022/11/24 11:04:00;;;;;;;11.23;4.70;;;;;;;-5.39;72.87;96310.06;6199214;28;20054;-67
2022/11/24 11:07:25;;;;;;;6.57;4.18;;;;;;;-5.46;72.55;96302.47;6199251;28;20442;-68
2022/11/24 11:10:29;;;;;;;12.45;4.50;;;;;;;-5.55;73.48;96305.09;6198677;28;20582;-66
2022/11/24 11:13:33;;;;;;;12.55;4.35;;;;;;;-5.59;73.22;96313.69;6198991;28;20081;-68
2022/11/24 11:16:47;;;;;;;10.65;4.82;;;;;;;-5.61;73.47;96312.03;6198371;28;20081;-67
2022/11/24 11:19:51;;;;;;;9.70;3.97;;;;;;;-5.60;73.68;96316.25;6199652;28;20141;-69
2022/11/24 11:23:01;;;;;;;9.05;3.58;;;;;;;-5.59;73.42;96313.69;6199619;28;20042;-67
2022/11/24 11:26:26;;;;;;;6.25;3.53;;;;;;;-5.67;73.66;96320.63;6198551;28;20057;-66
2022/11/24 11:29:30;;;;;;;8.00;3.50;;;;;;;-5.76;74.11;96323.28;6199033;28;20383;-68
2022/11/24 11:32:48;;;;;;;8.00;3.78;;;;;;;-5.85;73.54;96313.97;6198604;28;20058;-66
2022/11/24 11:35:55;;;;;;;6.13;3.08;;;;;;;-5.81;73.55;96317.34;6198910;28;20042;-67
2022/11/24 11:39:02;;;;;;;5.07;3.17;;;;;;;-5.73;73.76;96315.56;6199260;28;20128;-67
2022/11/24 11:42:13;;;;;;;;;;;;;;;-5.94;73.77;96326.91;6198892;28;20042;-67
2022/11/24 11:45:20;;;;;;;9.80;3.83;;;;;;;-6.01;74.37;96326.09;6198198;28;20312;-68
2022/11/24 11:48:39;;;;;;;4.68;3.08;;;;;;;-5.97;74.54;96317.53;6196691;28;20528;-67
2022/11/24 11:51:55;;;;;;;11.48;3.90;;;;;;;-6.16;74.51;96316.00;6198547;28;20042;-67
2022/11/24 11:55:16;;;;;;;8.35;3.85;;;;;;;-6.23;74.26;96320.31;6181725;28;20053;-66
2022/11/24 11:58:52;;;;;;;9.98;4.53;;;;;;;-6.25;74.51;96336.56;6197710;28;20065;-67
2022/11/24 12:02:02;;;;;;;6.82;3.00;;;;;;;-6.30;74.93;96328.06;6175656;28;20541;-67
2022/11/24 12:05:30;;;;;;;9.98;3.80;;;;;;;-6.43;74.93;96328.13;6197651;28;20057;-67
2022/11/24 12:08:56;;;;;;;9.23;3.63;;;;;;;-6.53;74.65;96320.56;6168127;28;20250;-67
2022/11/24 12:12:20;;;;;;;5.93;3.30;;;;;;;-6.58;74.78;96333.38;6198277;28;20151;-66
2022/11/24 12:15:43;;;;;;;4.97;2.97;;;;;;;-6.58;74.68;96334.22;6197009;28;20052;-66
2022/11/24 12:18:57;;;;;;;8.15;3.47;;;;;;;-6.50;75.52;96336.72;6197899;28;20465;-66
2022/11/24 12:22:12;;;;;;;10.10;4.15;;;;;;;-6.60;74.89;96335.09;6197382;28;20046;-67
2022/11/24 12:25:25;;;;;;;6.55;3.00;;;;;;;-6.66;75.56;96324.88;6197475;28;20416;-67
2022/11/24 12:29:07;;;;;;;9.25;4.28;;;;;;;-6.43;75.15;96317.91;6180429;28;20042;-67
2022/11/24 12:32:50;;;;;;;8.35;3.78;;;;;;;-6.61;74.65;96323.16;6148525;28;20054;-67
2022/11/24 12:36:15;;;;;;;9.63;3.80;;;;;;;-6.68;75.29;96326.59;6190028;28;20054;-67
2022/11/24 12:39:52;;;;;;;8.10;3.83;;;;;;;-6.81;74.75;96301.09;6180308;28;20445;-66
2022/11/24 12:43:16;;;;;;;13.13;7.40;;;;;;;-6.83;75.04;96313.03;6197502;28;20050;-66
2022/11/24 12:47:00;;;;;;;9.27;4.68;;;;;;;-6.75;74.92;96324.97;6197300;28;20054;-66
2022/11/24 12:50:12;;;;;;;8.57;3.55;;;;;;;-6.79;75.70;96324.97;6196954;28;20038;-66
2022/11/24 12:53:21;;;;;;;5.72;3.08;;;;;;;-6.81;75.36;96331.81;6197087;28;20102;-66
2022/11/24 12:56:39;;;;;;;12.00;4.50;;;;;;;-6.79;75.82;96327.53;6196751;28;20042;-67
2022/11/24 12:59:50;;;;;;;13.60;4.63;;;;;;;-6.85;75.51;96325.00;6196528;28;20433;-67
2022/11/24 13:03:03;;;;;;;6.70;3.47;;;;;;;-6.69;75.60;96324.91;6197194;28;20049;-67
2022/11/24 13:06:38;;;;;;;6.88;3.10;;;;;;;-6.81;75.62;96311.34;6179917;28;20046;-68
2022/11/24 13:10:18;;;;;;;10.00;4.63;;;;;;;-6.83;75.80;96307.94;6192171;28;20050;-66
2022/11/24 13:13:25;;;;;;;6.43;2.63;;;;;;;-6.68;75.48;96311.25;6193710;28;20092;-66
2022/11/24 13:16:31;;;;;;;9.10;3.95;;;;;;;-6.78;75.58;96316.44;6196750;28;20054;-66
2022/11/24 13:19:36;;;;;;;7.20;3.63;;;;;;;-6.76;75.21;96303.66;6196001;28;20053;-67
2022/11/24 13:22:51;;;;;;;6.93;2.83;;;;;;;-6.80;75.28;96318.13;6196431;28;20054;-66
2022/11/24 13:26:26;;;;;;;14.52;4.40;;;;;;;-6.82;75.65;96319.88;6196496;28;20051;-67
2022/11/24 13:29:29;;;;;;;7.22;3.53;;;;;;;-6.91;75.93;96319.91;6196323;28;20049;-67
2022/11/24 13:32:33;;;;;;;6.22;2.80;;;;;;;-6.84;75.70;96321.59;6196376;28;20069;-67
2022/11/24 13:36:00;;;;;;;5.88;2.78;;;;;;;-6.78;75.78;96321.56;6196415;28;20046;-66
2022/11/24 13:39:03;;;;;;;9.02;3.53;;;;;;;-6.82;75.72;96327.56;6195659;28;20212;-67
2022/11/24 13:42:10;;;;;;;6.05;3.05;;;;;;;-6.94;75.69;96319.09;6196467;28;20038;-68
2022/11/24 13:45:29;;;;;;;;;;;;;;;-6.85;75.50;96330.13;6196424;28;20042;-67
2022/11/24 13:48:35;;;;;;;7.03;3.03;;;;;;;-6.89;76.02;96328.44;6196230;28;20311;-66
2022/11/24 13:51:37;;;;;;;8.02;3.35;;;;;;;-6.93;76.02;96331.88;6196104;28;20050;-67
2022/11/24 13:54:40;;;;;;;6.35;2.80;;;;;;;-6.80;75.74;96333.50;6196584;28;20046;-66
2022/11/24 13:57:45;;;;;;;8.10;3.08;;;;;;;-6.94;75.78;96340.38;6195661;28;20126;-67
2022/11/24 14:01:06;;;;;;;4.28;2.28;;;;;;;-6.84;76.34;96336.09;6194963;28;20517;-67
2022/11/24 14:04:27;;;;;;;5.82;2.58;;;;;;;-6.93;75.96;96348.94;6196440;28;20042;-66
2022/11/24 14:07:30;;;;;;;10.63;4.38;;;;;;;-7.04;75.85;96344.72;6195864;28;20054;-67
2022/11/24 14:10:40;;;;;;;4.43;3.13;;;;;;;-6.94;76.53;96342.94;6200130;28;20046;-67
2022/11/24 14:13:44;;;;;;;7.93;3.35;;;;;;;-6.89;76.56;96346.34;6201027;28;20050;-68
2022/11/24 14:16:45;;;;;;;6.95;2.90;;;;;;;-6.84;75.84;96342.06;6200242;28;20050;-68
2022/11/24 14:19:54;;;;;;;8.25;3.53;;;;;;;-6.88;76.54;96349.75;6200116;28;20050;-66
2022/11/24 14:22:59;;;;;;;7.95;3.40;;;;;;;-6.83;76.22;96358.25;6183317;28;20050;-68
2022/11/24 14:26:03;;;;;;;3.33;1.95;;;;;;;-6.84;76.04;96357.41;6200110;28;20054;-68
2022/11/24 14:29:20;;;;;;;7.47;3.42;;;;;;;-6.85;76.68;96358.28;6199789;28;20053;-67
2022/11/24 14:32:36;;;;;;;8.50;3.70;;;;;;;-6.89;76.36;96354.00;6200507;28;20042;-67
2022/11/24 14:35:46;;;;;;;4.25;2.85;;;;;;;-6.79;76.14;96360.78;6200632;28;20054;-69
2022/11/24 14:38:50;;;;;;;7.22;3.28;;;;;;;-6.78;76.05;96361.63;6200381;28;20050;-71